Time;durP1;ratioP1;P1;durP2;ratioP2;P2;SDS_P1;SDS_P2;PMS_P1;PMS_P2;Temp;Humidity;BMP_temperature;BMP_pressure;BME280_temperature;BME280_humidity;BME280_pressure;Samples;Min_cycle;Max_cycle;Signal;HPM_P1;HPM_P2
2022/07/27 00:02:02;;;;;;;1999.90;999.90;;;;;;;19.75;100.00;94568.25;5097513;28;20199;-63
2022/07/27 00:04:27;;;;;;;1999.90;999.90;;;;;;;19.76;100.00;94561.44;5097586;28;20226;-62
2022/07/27 00:06:53;;;;;;;1999.90;999.90;;;;;;;19.76;100.00;94555.91;5097463;28;20187;-70
2022/07/27 00:09:18;;;;;;;1999.90;999.90;;;;;;;19.74;100.00;94530.66;5097814;28;20344;-63
2022/07/27 00:11:45;;;;;;;1999.90;999.90;;;;;;;19.70;100.00;94524.56;5097579;28;20187;-62
2022/07/27 00:14:10;;;;;;;1999.90;999.90;;;;;;;19.67;100.00;94513.72;5115538;28;20187;-62
2022/07/27 00:16:36;;;;;;;1999.90;999.90;;;;;;;19.64;100.00;94498.81;5097389;28;20198;-62
2022/07/27 00:19:01;;;;;;;1999.90;999.90;;;;;;;19.60;100.00;94503.03;5097673;28;20212;-63
2022/07/27 00:21:27;;;;;;;1999.90;999.90;;;;;;;19.55;100.00;94487.09;5097383;28;20234;-62
2022/07/27 00:23:53;;;;;;;1999.90;999.90;;;;;;;19.52;100.00;94486.81;5097578;28;20206;-63
2022/07/27 00:26:18;;;;;;;1999.90;999.90;;;;;;;19.52;100.00;94481.28;5097722;28;20199;-71
2022/07/27 00:28:44;;;;;;;1999.90;999.90;;;;;;;19.55;100.00;94467.72;5097418;28;20184;-80
2022/07/27 00:31:09;;;;;;;1999.90;999.90;;;;;;;19.57;100.00;94465.19;5097217;28;20187;-68
2022/07/27 00:33:34;;;;;;;1999.90;999.90;;;;;;;19.58;100.00;94461.19;5097058;28;20206;-72
2022/07/27 00:36:01;;;;;;;1999.90;999.90;;;;;;;19.63;100.00;94454.97;5097189;28;20183;-64
2022/07/27 00:38:27;;;;;;;1999.90;999.90;;;;;;;19.67;100.00;94459.06;5097000;28;20184;-69
2022/07/27 00:40:52;;;;;;;1999.90;999.90;;;;;;;19.72;100.00;94454.81;5097022;28;20191;-72
2022/07/27 00:43:18;;;;;;;1999.90;999.90;;;;;;;19.76;100.00;94450.59;5096771;28;20202;-67
2022/07/27 00:45:43;;;;;;;1999.90;999.90;;;;;;;19.77;100.00;94468.75;5097326;28;20194;-62
2022/07/27 00:48:09;;;;;;;1999.90;999.90;;;;;;;19.79;100.00;94474.56;5096891;28;20184;-62
2022/07/27 00:50:36;;;;;;;1999.90;999.90;;;;;;;19.82;100.00;94470.84;5096745;28;20172;-62
2022/07/27 00:53:03;;;;;;;1999.90;999.90;;;;;;;19.75;100.00;94482.34;5096579;28;20268;-61
2022/07/27 00:55:31;;;;;;;1999.90;999.90;;;;;;;19.77;100.00;94468.00;5096866;28;20184;-61
2022/07/27 00:57:57;;;;;;;1999.90;999.90;;;;;;;19.79;100.00;94471.81;5096805;28;20259;-62
2022/07/27 01:00:22;;;;;;;1999.90;999.90;;;;;;;19.79;100.00;94477.34;5096744;28;20191;-72
2022/07/27 01:02:48;;;;;;;1999.90;999.90;;;;;;;19.83;100.00;94475.13;5096860;28;20253;-61
2022/07/27 01:05:13;;;;;;;1999.90;999.90;;;;;;;19.87;100.00;94472.91;5096604;28;20180;-62
2022/07/27 01:07:39;;;;;;;1999.90;999.90;;;;;;;19.95;100.00;94473.25;5096663;28;20271;-62
2022/07/27 01:10:05;;;;;;;1999.90;999.90;;;;;;;19.95;100.00;94476.78;5096559;28;20196;-61
2022/07/27 01:12:43;;;;;;;1999.90;999.90;;;;;;;19.95;100.00;94476.78;5096514;28;20191;-61
2022/07/27 01:15:11;;;;;;;1999.90;999.90;;;;;;;19.94;100.00;94478.03;5096920;28;20211;-63
2022/07/27 01:17:37;;;;;;;1999.90;999.90;;;;;;;19.82;100.00;94454.22;5096604;28;20179;-64
2022/07/27 01:20:03;;;;;;;1999.90;999.90;;;;;;;19.79;100.00;94443.31;5097184;28;20191;-67
2022/07/27 01:22:29;;;;;;;1999.90;999.90;;;;;;;19.78;100.00;94437.03;5096973;28;20277;-70
2022/07/27 01:24:54;;;;;;;1999.90;999.90;;;;;;;19.80;100.00;94423.44;5096460;28;20210;-69
2022/07/27 01:27:20;;;;;;;1999.90;999.90;;;;;;;19.81;100.00;94422.19;5096259;28;20192;-67
2022/07/27 01:29:45;;;;;;;1999.90;999.90;;;;;;;19.83;100.00;94428.00;5096413;28;20211;-69
2022/07/27 01:32:11;;;;;;;1999.90;999.90;;;;;;;19.82;100.00;94425.72;5096315;28;20215;-67
2022/07/27 01:34:36;;;;;;;1999.90;999.90;;;;;;;19.79;100.00;94438.56;5096262;28;20279;-70
2022/07/27 01:37:03;;;;;;;1999.90;999.90;;;;;;;19.77;100.00;94438.25;5096138;28;20194;-72
2022/07/27 01:39:29;;;;;;;1999.90;999.90;;;;;;;19.73;100.00;94434.94;5096272;28;20187;-62
2022/07/27 01:41:54;;;;;;;1999.90;999.90;;;;;;;19.68;100.00;94432.88;5114064;28;20291;-62
2022/07/27 01:44:20;;;;;;;1999.90;999.90;;;;;;;19.63;100.00;94428.00;5096267;28;20229;-62
2022/07/27 01:46:45;;;;;;;1999.90;999.90;;;;;;;19.58;100.00;94428.72;5096009;28;20300;-62
2022/07/27 01:49:10;;;;;;;1999.90;999.90;;;;;;;19.51;100.00;94415.28;5095952;28;20179;-62
2022/07/27 01:51:36;;;;;;;1999.90;999.90;;;;;;;19.40;100.00;94418.66;5095708;28;20275;-62
2022/07/27 01:54:01;;;;;;;1999.90;999.90;;;;;;;19.31;100.00;94409.75;5096250;28;20184;-63
2022/07/27 01:56:26;;;;;;;1999.90;999.90;;;;;;;19.23;100.00;94406.56;5097178;28;20184;-62
2022/07/27 01:58:53;;;;;;;1999.90;999.90;;;;;;;19.15;100.00;94391.63;5100107;28;20217;-62
2022/07/27 02:01:19;;;;;;;1999.90;999.90;;;;;;;19.11;100.00;94393.06;5099435;28;20191;-62
2022/07/27 02:03:44;;;;;;;1999.90;999.90;;;;;;;19.05;100.00;94378.41;5099919;28;20214;-62
2022/07/27 02:06:10;;;;;;;1999.90;999.90;;;;;;;19.04;100.00;94363.00;5099344;28;20191;-62
2022/07/27 02:08:35;;;;;;;1999.90;999.90;;;;;;;18.96;100.00;94361.91;5099202;28;20207;-61
2022/07/27 02:13:46;;;;;;;1999.90;999.90;;;;;;;18.90;100.00;94319.53;5118188;28;20236;-70
2022/07/27 02:16:13;;;;;;;1999.90;999.90;;;;;;;18.88;100.00;94306.22;5099149;28;20287;-68
2022/07/27 02:18:39;;;;;;;1999.90;999.90;;;;;;;18.85;100.00;94300.88;5099233;28;20191;-70
2022/07/27 02:21:05;;;;;;;1999.90;999.90;;;;;;;18.79;100.00;94292.50;5099301;28;20184;-69
2022/07/27 02:23:31;;;;;;;1999.90;999.90;;;;;;;18.75;100.00;94291.16;5099116;28;20204;-68
2022/07/27 02:25:57;;;;;;;1999.90;999.90;;;;;;;18.74;100.00;94278.59;5099497;28;20211;-68
2022/07/27 02:28:22;;;;;;;1999.90;999.90;;;;;;;18.73;100.00;94271.53;5099464;28;20230;-69
2022/07/27 02:30:47;;;;;;;1999.90;999.90;;;;;;;18.73;100.00;94258.44;5099188;28;20215;-68
2022/07/27 02:33:13;;;;;;;1999.90;999.90;;;;;;;18.73;100.00;94261.22;5099023;28;20196;-66
2022/07/27 02:35:39;;;;;;;1999.90;999.90;;;;;;;18.74;100.00;94262.00;5098922;28;20183;-63
2022/07/27 02:38:04;;;;;;;1999.90;999.90;;;;;;;18.72;100.00;94270.03;5099041;28;20210;-64
2022/07/27 02:40:29;;;;;;;1999.90;999.90;;;;;;;18.72;100.00;94258.97;5098731;28;20179;-63
2022/07/27 02:42:55;;;;;;;1999.90;999.90;;;;;;;18.72;100.00;94270.03;5098944;28;20303;-64
2022/07/27 02:45:20;;;;;;;1999.90;999.90;;;;;;;18.74;100.00;94271.06;5098598;28;20176;-63
2022/07/27 02:47:46;;;;;;;1999.90;999.90;;;;;;;18.73;100.00;94274.31;5099074;28;20290;-62
2022/07/27 02:50:12;;;;;;;1999.90;999.90;;;;;;;18.70;100.00;94283.56;5099240;28;20199;-61
2022/07/27 02:52:37;;;;;;;1999.90;999.90;;;;;;;18.67;100.00;94287.28;5098944;28;20199;-66
2022/07/27 02:55:03;;;;;;;1999.90;999.90;;;;;;;18.61;100.00;94292.00;5098646;28;20278;-69
2022/07/27 02:57:29;;;;;;;1999.90;999.90;;;;;;;18.53;100.00;94308.22;5098817;28;20183;-67
2022/07/27 02:59:55;;;;;;;1999.90;999.90;;;;;;;18.47;100.00;94325.97;5098575;28;20240;-69
2022/07/27 03:02:20;;;;;;;1999.90;999.90;;;;;;;18.42;100.00;94329.41;5098596;28;20203;-70
2022/07/27 03:04:45;;;;;;;1999.90;999.90;;;;;;;18.42;100.00;94340.47;5098511;28;20179;-72
2022/07/27 03:07:11;;;;;;;1999.90;999.90;;;;;;;18.41;100.00;94353.56;5098673;28;20222;-70
2022/07/27 03:09:36;;;;;;;1999.90;999.90;;;;;;;18.41;100.00;94366.59;5115377;28;20204;-62
2022/07/27 03:12:02;;;;;;;1999.90;999.90;;;;;;;18.45;100.00;94381.00;5098398;28;20191;-76
2022/07/27 03:14:27;;;;;;;1999.90;999.90;;;;;;;18.46;100.00;94385.28;5097953;28;20184;-71
2022/07/27 03:16:53;;;;;;;1999.90;999.90;;;;;;;18.48;100.00;94393.88;5098401;28;20187;-73
2022/07/27 03:19:18;;;;;;;1999.90;999.90;;;;;;;18.47;100.00;94414.47;5098704;28;20184;-70
2022/07/27 03:21:44;;;;;;;1999.90;999.90;;;;;;;18.46;100.00;94424.75;5098831;28;20188;-72
2022/07/27 03:24:10;;;;;;;1999.90;999.90;;;;;;;18.48;100.00;94430.59;5098563;28;20279;-72
2022/07/27 03:26:35;;;;;;;1999.90;999.90;;;;;;;18.47;100.00;94433.81;5098257;28;20194;-62
2022/07/27 03:29:00;;;;;;;1999.90;999.90;;;;;;;18.52;100.00;94441.44;5098116;28;20184;-63
2022/07/27 03:31:26;;;;;;;1999.90;999.90;;;;;;;18.57;100.00;94446.28;5098143;28;20183;-66
2022/07/27 03:33:51;;;;;;;1999.90;999.90;;;;;;;18.57;100.00;94454.59;5098196;28;20195;-63
2022/07/27 03:36:16;;;;;;;1999.90;999.90;;;;;;;18.59;100.00;94460.44;5098295;28;20192;-68
2022/07/27 03:38:42;;;;;;;1999.90;999.90;;;;;;;18.63;100.00;94466.53;5097836;28;20256;-66
2022/07/27 03:41:07;;;;;;;1999.90;999.90;;;;;;;18.69;100.00;94464.63;5098091;28;20187;-66
2022/07/27 03:43:34;;;;;;;1999.90;999.90;;;;;;;18.74;100.00;94477.78;5098145;28;20226;-66
2022/07/27 03:46:00;;;;;;;1999.90;999.90;;;;;;;18.77;100.00;94490.66;5097833;28;20311;-62
2022/07/27 03:48:26;;;;;;;1999.90;999.90;;;;;;;18.79;100.00;94485.41;5097959;28;20189;-70
2022/07/27 03:50:52;;;;;;;1999.90;999.90;;;;;;;18.79;100.00;94479.84;5098008;28;20241;-70
2022/07/27 03:53:20;;;;;;;1999.90;999.90;;;;;;;18.82;100.00;94495.50;5097938;28;20191;-69
2022/07/27 03:55:48;;;;;;;1999.90;999.90;;;;;;;18.88;100.00;94504.69;5097805;28;20184;-68
2022/07/27 03:58:14;;;;;;;1999.90;999.90;;;;;;;18.94;100.00;94522.88;5098151;28;20199;-69
2022/07/27 04:00:39;;;;;;;1999.90;999.90;;;;;;;19.01;100.00;94546.63;5098292;28;20188;-71
2022/07/27 04:03:05;;;;;;;1999.90;999.90;;;;;;;19.08;100.00;94568.41;5098179;28;20206;-66
2022/07/27 04:05:30;;;;;;;1999.90;999.90;;;;;;;19.10;100.00;94593.63;5097766;28;20187;-68
2022/07/27 04:07:56;;;;;;;1999.90;999.90;;;;;;;19.11;100.00;94612.53;5097542;28;20183;-72
2022/07/27 04:10:22;;;;;;;1999.90;999.90;;;;;;;19.12;100.00;94636.19;5097564;28;20211;-78
2022/07/27 04:12:47;;;;;;;1999.90;999.90;;;;;;;19.15;100.00;94648.31;5097779;28;20194;-70
2022/07/27 04:15:13;;;;;;;1999.90;999.90;;;;;;;19.16;100.00;94663.69;5097235;28;20195;-66
2022/07/27 04:17:38;;;;;;;1999.90;999.90;;;;;;;19.21;100.00;94665.78;5097784;28;20183;-67
2022/07/27 04:20:04;;;;;;;1999.90;999.90;;;;;;;19.29;100.00;94666.97;5097237;28;20190;-69
2022/07/27 04:22:30;;;;;;;1999.90;999.90;;;;;;;19.32;100.00;94674.31;5096883;28;20233;-62
2022/07/27 04:24:55;;;;;;;1999.90;999.90;;;;;;;19.32;100.00;94688.16;5097699;28;20195;-67
2022/07/27 04:27:20;;;;;;;1999.90;999.90;;;;;;;19.35;100.00;94703.84;5097541;28;20184;-66
2022/07/27 04:29:46;;;;;;;1999.90;999.90;;;;;;;19.36;100.00;94721.97;5097152;28;20248;-69
2022/07/27 04:32:11;;;;;;;1999.90;999.90;;;;;;;19.42;100.00;94739.47;5097732;28;20274;-69
2022/07/27 04:34:36;;;;;;;1999.90;999.90;;;;;;;19.42;100.00;94762.38;5097090;28;20179;-69
2022/07/27 04:37:02;;;;;;;1999.90;999.90;;;;;;;19.43;100.00;94777.00;5097472;28;20182;-68
2022/07/27 04:39:27;;;;;;;1999.90;999.90;;;;;;;19.45;100.00;94793.91;5097032;28;20180;-68
2022/07/27 04:41:53;;;;;;;1999.90;999.90;;;;;;;19.52;100.00;94807.38;5096979;28;20300;-67
2022/07/27 04:44:18;;;;;;;1999.90;999.90;;;;;;;19.62;100.00;94810.84;5114977;28;20208;-64
2022/07/27 04:46:43;;;;;;;1999.90;999.90;;;;;;;19.62;100.00;94833.78;5096948;28;20191;-64
2022/07/27 04:49:09;;;;;;;1999.90;999.90;;;;;;;19.68;100.00;94837.41;5097440;28;20179;-64
2022/07/27 04:51:34;;;;;;;1999.90;999.90;;;;;;;19.76;100.00;94844.13;5096814;28;20190;-64
2022/07/27 04:54:00;;;;;;;1999.90;999.90;;;;;;;19.82;100.00;94850.53;5097361;28;20184;-63
2022/07/27 04:56:26;;;;;;;1999.90;999.90;;;;;;;19.87;100.00;94854.63;5096652;28;20199;-63
2022/07/27 04:58:51;;;;;;;1999.90;999.90;;;;;;;19.87;100.00;94863.72;5096585;28;20191;-66
2022/07/27 05:01:16;;;;;;;1999.90;999.90;;;;;;;19.90;100.00;94882.19;5096768;28;20199;-65
2022/07/27 05:03:42;;;;;;;1999.90;999.90;;;;;;;19.95;100.00;94884.28;5097309;28;20207;-64
2022/07/27 05:06:08;;;;;;;1999.90;999.90;;;;;;;19.99;100.00;94890.41;5096502;28;20207;-62
2022/07/27 05:08:34;;;;;;;1999.90;999.90;;;;;;;20.04;100.00;94897.28;5096489;28;20239;-63
2022/07/27 05:11:00;;;;;;;1999.90;999.90;;;;;;;20.11;100.00;94903.28;5096804;28;20183;-63
2022/07/27 05:13:25;;;;;;;1999.90;999.90;;;;;;;20.20;100.00;94894.84;5096768;28;20216;-62
2022/07/27 05:15:50;;;;;;;1999.90;999.90;;;;;;;20.27;100.00;94894.47;5096530;28;20187;-64
2022/07/27 05:18:16;;;;;;;1999.90;999.90;;;;;;;20.38;100.00;94900.22;5096230;28;20195;-69
2022/07/27 05:20:41;;;;;;;1999.90;999.90;;;;;;;20.43;100.00;94913.41;5096483;28;20271;-74
2022/07/27 05:23:06;;;;;;;1999.90;999.90;;;;;;;20.50;100.00;94912.28;5096689;28;20208;-72
2022/07/27 05:25:32;;;;;;;1999.90;999.90;;;;;;;20.56;100.00;94925.00;5096676;28;20191;-71
2022/07/27 05:27:57;;;;;;;1999.90;999.90;;;;;;;20.62;100.00;94936.19;5095926;28;20195;-70
2022/07/27 05:30:24;;;;;;;1999.90;999.90;;;;;;;20.60;100.00;94949.75;5096197;28;20187;-74
2022/07/27 05:32:49;;;;;;;1999.90;999.90;;;;;;;20.63;100.00;94949.59;5095973;28;20203;-74
2022/07/27 05:35:15;;;;;;;1999.90;999.90;;;;;;;20.69;100.00;94953.22;5096180;28;20184;-64
2022/07/27 05:37:40;;;;;;;1999.90;999.90;;;;;;;20.78;100.00;94950.34;5096056;28;20184;-67
2022/07/27 05:40:07;;;;;;;1999.90;999.90;;;;;;;21.01;100.00;94957.81;5096330;28;20211;-70
2022/07/27 05:42:33;;;;;;;1999.90;999.90;;;;;;;21.19;100.00;94974.25;5096183;28;20208;-63
2022/07/27 05:44:59;;;;;;;1999.90;999.90;;;;;;;21.27;100.00;94991.31;5096048;28;20187;-68
2022/07/27 05:47:24;;;;;;;1999.90;999.90;;;;;;;21.31;100.00;94980.75;5096181;28;20194;-64
2022/07/27 05:49:50;;;;;;;1999.90;999.90;;;;;;;21.33;100.00;94981.78;5096232;28;20184;-69
2022/07/27 05:52:15;;;;;;;1999.90;999.90;;;;;;;21.42;100.00;94980.91;5095656;28;20204;-68
2022/07/27 05:54:42;;;;;;;1999.90;999.90;;;;;;;21.48;100.00;94974.19;5095703;28;20179;-71
2022/07/27 05:57:07;;;;;;;1999.90;999.90;;;;;;;21.50;100.00;94971.69;5096215;28;20187;-62
2022/07/27 05:59:32;;;;;;;1999.90;999.90;;;;;;;21.60;100.00;94970.28;5095888;28;20197;-66
2022/07/27 06:01:58;;;;;;;1999.90;999.90;;;;;;;21.71;100.00;94980.81;5095795;28;20180;-64
2022/07/27 06:04:25;;;;;;;1999.90;999.90;;;;;;;21.79;100.00;94993.84;5095892;28;20180;-69
2022/07/27 06:09:34;;;;;;;1999.90;999.90;;;;;;;22.06;100.00;95007.34;5114262;28;20248;-68
2022/07/27 06:11:59;;;;;;;1999.90;999.90;;;;;;;22.10;100.00;95013.47;5095784;28;20275;-63
2022/07/27 06:14:25;;;;;;;1999.90;999.90;;;;;;;22.47;100.00;95013.63;5095239;28;20202;-64
2022/07/27 06:16:50;;;;;;;1999.90;999.90;;;;;;;23.03;100.00;95023.34;5095517;28;20199;-63
2022/07/27 06:19:15;;;;;;;1999.90;999.90;;;;;;;24.66;100.00;95029.75;5113516;28;20264;-62
2022/07/27 06:21:41;;;;;;;1999.90;999.90;;;;;;;25.26;100.00;94827.75;5095364;28;20176;-62
2022/07/27 06:24:06;;;;;;;1999.90;999.90;;;;;;;25.42;100.00;94891.28;5095447;28;20203;-62
2022/07/27 06:26:32;;;;;;;1999.90;999.90;;;;;;;25.43;100.00;95071.84;5095478;28;20242;-63
2022/07/27 06:28:59;;;;;;;1999.90;999.90;;;;;;;25.30;100.00;95121.88;5095503;28;20198;-62
2022/07/27 06:31:26;;;;;;;1999.90;999.90;;;;;;;25.08;100.00;95144.19;5095327;28;20188;-70
2022/07/27 06:33:53;;;;;;;1999.90;999.90;;;;;;;24.72;100.00;95150.63;5095494;28;20230;-64
2022/07/27 06:36:19;;;;;;;1999.90;999.90;;;;;;;24.50;100.00;95150.50;5095140;28;20184;-64
2022/07/27 06:38:45;;;;;;;1999.90;999.90;;;;;;;24.61;100.00;95150.56;5095669;28;20187;-64
2022/07/27 06:41:10;;;;;;;1999.90;999.90;;;;;;;24.68;100.00;95156.47;5095190;28;20284;-64
2022/07/27 06:43:36;;;;;;;1999.90;999.90;;;;;;;25.67;100.00;95174.84;5097720;28;20207;-62
2022/07/27 06:46:02;;;;;;;1999.90;999.90;;;;;;;25.47;100.00;95181.44;5098444;28;20183;-65
2022/07/27 06:48:30;;;;;;;1999.90;999.90;;;;;;;25.35;100.00;95174.28;5098825;28;20188;-63
2022/07/27 06:50:56;;;;;;;1999.90;999.90;;;;;;;25.09;100.00;95179.25;5099074;28;20187;-73
2022/07/27 06:53:21;;;;;;;1999.90;999.90;;;;;;;26.19;100.00;95170.31;5098525;28;20198;-65
2022/07/27 06:55:47;;;;;;;1999.90;999.90;;;;;;;27.74;100.00;95182.50;5098357;28;20223;-62
2022/07/27 06:58:13;;;;;;;1999.90;999.90;;;;;;;27.66;100.00;95196.34;5098532;28;20296;-64
2022/07/27 07:00:39;;;;;;;1999.90;999.90;;;;;;;28.53;98.28;95192.66;5098474;28;20198;-63
2022/07/27 07:03:05;;;;;;;1999.90;999.90;;;;;;;28.44;96.04;95202.19;5098407;28;20215;-66
2022/07/27 07:05:33;;;;;;;1999.90;999.90;;;;;;;28.42;92.48;95193.50;5098563;28;20213;-66
2022/07/27 07:07:59;;;;;;;1999.90;999.90;;;;;;;28.84;90.63;95190.03;5098628;28;20183;-66
2022/07/27 07:10:26;;;;;;;1999.90;999.90;;;;;;;28.70;88.04;95196.06;5098479;28;20295;-65
2022/07/27 07:12:56;;;;;;;1999.90;999.90;;;;;;;28.89;90.17;95189.22;5098370;28;20184;-64
2022/07/27 07:15:25;;;;;;;1999.90;999.90;;;;;;;29.41;82.85;95191.66;5098673;28;20266;-63
2022/07/27 07:17:51;;;;;;;1999.90;999.90;;;;;;;29.27;81.65;95188.00;5098432;28;20184;-66
2022/07/27 07:20:16;;;;;;;1999.90;999.90;;;;;;;30.30;74.06;95184.25;5098203;28;20228;-63
2022/07/27 07:22:41;;;;;;;1999.90;999.90;;;;;;;31.36;69.93;95183.84;5098137;28;20204;-66
2022/07/27 07:25:07;;;;;;;1999.90;999.90;;;;;;;30.71;74.00;95181.00;5098206;28;20229;-63
2022/07/27 07:27:33;;;;;;;1999.90;999.90;;;;;;;29.62;78.27;95185.03;5098504;28;20310;-69
2022/07/27 07:29:58;;;;;;;1999.90;999.90;;;;;;;30.31;73.86;95182.97;5098317;28;20223;-62
2022/07/27 07:32:24;;;;;;;1999.90;999.90;;;;;;;30.75;71.80;95170.16;5116239;28;20188;-62
2022/07/27 07:34:50;;;;;;;1999.90;999.90;;;;;;;30.88;70.99;95181.47;5098096;28;20176;-63
2022/07/27 07:37:17;;;;;;;1999.90;999.90;;;;;;;31.31;66.06;95181.13;5098041;28;20191;-61
2022/07/27 07:39:43;;;;;;;1999.90;999.90;;;;;;;33.47;59.59;95170.34;5098360;28;20179;-61
2022/07/27 07:42:12;;;;;;;1999.90;999.90;;;;;;;34.69;50.12;95169.34;5097887;28;20191;-62
2022/07/27 07:44:37;;;;;;;1999.90;999.90;;;;;;;33.74;51.22;95168.78;5098186;28;20249;-62
2022/07/27 07:47:03;;;;;;;1999.90;999.90;;;;;;;34.71;49.87;95163.84;5097858;28;20187;-76
2022/07/27 07:49:28;;;;;;;1999.90;999.90;;;;;;;35.54;45.75;95175.88;5097980;28;20172;-79
2022/07/27 07:51:54;;;;;;;1999.90;999.90;;;;;;;36.18;42.17;95182.41;5098442;28;20180;-74
2022/07/27 07:54:19;;;;;;;1999.90;999.90;;;;;;;36.68;41.00;95178.28;5097468;28;20172;-74
2022/07/27 07:56:44;;;;;;;1999.90;999.90;;;;;;;36.52;40.15;95181.81;5097664;28;20182;-77
2022/07/27 07:59:10;;;;;;;1999.90;999.90;;;;;;;37.30;38.45;95180.06;5097944;28;20203;-75
2022/07/27 08:01:35;;;;;;;1999.90;999.90;;;;;;;37.04;37.13;95177.81;5097723;28;20183;-74
2022/07/27 08:04:01;;;;;;;1999.90;999.90;;;;;;;36.39;37.20;95182.13;5098021;28;20265;-62
2022/07/27 08:06:26;;;;;;;1999.90;999.90;;;;;;;36.27;36.52;95178.22;5097387;28;20176;-62
2022/07/27 08:08:51;;;;;;;1999.90;999.90;;;;;;;34.43;38.89;95181.81;5097390;28;20211;-64
2022/07/27 08:11:17;;;;;;;1999.90;999.90;;;;;;;34.73;38.54;95183.94;5097855;28;20176;-62
2022/07/27 08:13:42;;;;;;;1999.90;999.90;;;;;;;34.22;38.94;95186.13;5097403;28;20596;-62
2022/07/27 08:16:08;;;;;;;1999.90;999.90;;;;;;;33.47;40.60;95184.50;5097640;28;20180;-61
2022/07/27 08:18:33;;;;;;;1999.90;999.90;;;;;;;32.81;45.98;95171.44;5097624;28;20198;-62
2022/07/27 08:20:58;;;;;;;1999.90;999.90;;;;;;;32.67;45.40;95173.56;5097573;28;20175;-72
2022/07/27 08:23:25;;;;;;;1999.90;999.90;;;;;;;33.32;44.50;95169.50;5097291;28;20208;-63
2022/07/27 08:25:51;;;;;;;1999.90;999.90;;;;;;;33.88;41.74;95174.31;5097186;28;20179;-62
2022/07/27 08:28:17;;;;;;;1999.90;999.90;;;;;;;33.72;39.81;95182.00;5097772;28;20187;-63
2022/07/27 08:30:43;;;;;;;1999.90;999.90;;;;;;;32.66;43.35;95186.22;5097292;28;20179;-61
2022/07/27 08:33:09;;;;;;;1999.90;999.90;;;;;;;32.99;41.88;95182.50;5097589;28;20278;-64
2022/07/27 08:35:34;;;;;;;1999.90;999.90;;;;;;;33.31;43.44;95180.06;5097483;28;20325;-61
2022/07/27 08:38:01;;;;;;;1999.90;999.90;;;;;;;33.17;44.74;95175.06;5097059;28;20180;-62
2022/07/27 08:40:26;;;;;;;1999.90;999.90;;;;;;;33.39;45.61;95183.72;5096759;28;20203;-67
2022/07/27 08:42:52;;;;;;;1999.90;999.90;;;;;;;32.92;46.21;95191.72;5096898;28;20236;-65
2022/07/27 08:45:22;;;;;;;1999.90;999.90;;;;;;;31.46;50.37;95201.84;5096874;28;20279;-62
2022/07/27 08:47:48;;;;;;;1999.90;999.90;;;;;;;31.59;49.92;95190.53;5097633;28;20194;-63
2022/07/27 08:50:26;;;;;;;1999.90;999.90;;;;;;;31.49;54.61;95195.09;5097517;28;20179;-65
2022/07/27 08:53:08;;;;;;;1999.90;999.90;;;;;;;31.15;55.68;95194.25;5096910;28;20190;-66
2022/07/27 08:55:37;;;;;;;1999.90;999.90;;;;;;;31.07;54.88;95194.13;5097042;28;20256;-61
2022/07/27 08:58:04;;;;;;;1999.90;999.90;;;;;;;31.35;54.17;95192.88;5096813;28;20211;-63
2022/07/27 09:00:30;;;;;;;1999.90;999.90;;;;;;;30.93;55.47;95197.50;5096596;28;20183;-73
2022/07/27 09:02:56;;;;;;;1999.90;999.90;;;;;;;30.27;55.85;95198.66;5096626;28;20283;-74
2022/07/27 09:05:21;;;;;;;1999.90;999.90;;;;;;;30.38;56.28;95198.47;5096075;28;20199;-79
2022/07/27 09:07:47;;;;;;;1999.90;999.90;;;;;;;29.81;58.96;95202.66;5095897;28;20264;-69
2022/07/27 09:10:29;;;;;;;1999.90;999.90;;;;;;;28.64;65.27;95203.78;5096568;28;20207;-69
2022/07/27 09:12:54;;;;;;;1999.90;999.90;;;;;;;28.85;64.75;95204.84;5097392;28;20242;-76
2022/07/27 09:15:19;;;;;;;1999.90;999.90;;;;;;;28.83;66.47;95193.38;5096401;28;20200;-62
2022/07/27 09:17:45;;;;;;;1999.90;999.90;;;;;;;28.77;65.19;95201.13;5096475;28;20213;-64
2022/07/27 09:20:15;;;;;;;1999.90;999.90;;;;;;;28.49;66.40;95214.66;5096330;28;20175;-63
2022/07/27 09:22:40;;;;;;;1999.90;999.90;;;;;;;28.61;64.25;95216.84;5096773;28;20257;-63
2022/07/27 09:25:07;;;;;;;1999.90;999.90;;;;;;;28.74;65.22;95213.41;5096227;28;20179;-60
2022/07/27 09:27:33;;;;;;;1999.90;999.90;;;;;;;28.08;67.52;95215.50;5096353;28;20183;-64
2022/07/27 09:30:08;;;;;;;1999.90;999.90;;;;;;;28.62;67.44;95212.75;5096373;28;20180;-65
2022/07/27 09:32:34;;;;;;;1999.90;999.90;;;;;;;28.50;66.99;95213.38;5096304;28;20232;-67
2022/07/27 09:35:15;;;;;;;1999.90;999.90;;;;;;;29.07;62.92;95201.81;5096911;28;20240;-76
2022/07/27 09:37:40;;;;;;;1999.90;999.90;;;;;;;29.35;63.67;95205.06;5096556;28;20287;-63
2022/07/27 09:40:21;;;;;;;1999.90;999.90;;;;;;;29.86;59.71;95198.25;5096193;28;20267;-64
2022/07/27 09:42:47;;;;;;;1999.90;999.90;;;;;;;29.81;59.11;95205.47;5096462;28;20218;-62
2022/07/27 09:45:33;;;;;;;1999.90;999.90;;;;;;;29.75;54.74;95215.31;5095947;28;20187;-63
2022/07/27 09:48:16;;;;;;;1999.90;999.90;;;;;;;30.31;50.14;95208.34;5095895;28;20191;-63
2022/07/27 09:50:58;;;;;;;1999.90;999.90;;;;;;;30.34;51.47;95209.31;5096082;28;20176;-64
2022/07/27 09:53:27;;;;;;;1999.90;999.90;;;;;;;30.84;50.17;95212.03;5096424;28;20244;-64
2022/07/27 09:56:00;;;;;;;1999.90;999.90;;;;;;;32.14;47.18;95206.25;5096032;28;20182;-67
2022/07/27 09:58:45;;;;;;;1999.90;999.90;;;;;;;31.91;45.04;95205.25;5096257;28;20283;-67
2022/07/27 10:01:22;;;;;;;1999.90;999.90;;;;;;;31.45;44.05;95214.44;5096379;28;20180;-67
2022/07/27 10:03:50;;;;;;;1999.90;999.90;;;;;;;31.04;45.30;95214.22;5096117;28;20215;-67
2022/07/27 10:06:16;;;;;;;1999.90;999.90;;;;;;;30.62;46.88;95209.56;5095775;28;20249;-66
2022/07/27 10:08:47;;;;;;;1999.90;999.90;;;;;;;30.10;50.87;95207.34;5095783;28;20195;-63
2022/07/27 10:11:14;;;;;;;1999.90;999.90;;;;;;;31.57;47.99;95207.25;5095559;28;20176;-62
2022/07/27 10:13:40;;;;;;;1999.90;999.90;;;;;;;30.45;49.55;95201.41;5095688;28;20183;-75
2022/07/27 10:16:10;;;;;;;1999.90;999.90;;;;;;;29.46;54.94;95213.38;5096103;28;20179;-68
2022/07/27 10:19:00;;;;;;;1999.90;999.90;;;;;;;29.51;56.99;95212.53;5098078;28;20187;-68
2022/07/27 10:21:26;;;;;;;1999.90;999.90;;;;;;;29.74;58.43;95208.13;5099203;28;20179;-64
2022/07/27 10:24:01;;;;;;;1999.90;999.90;;;;;;;30.33;50.08;95202.13;5099301;28;20196;-65
2022/07/27 10:26:30;;;;;;;1999.90;999.90;;;;;;;30.86;48.93;95209.44;5098978;28;20217;-68
2022/07/27 10:29:14;;;;;;;1999.90;999.90;;;;;;;29.68;52.48;95211.03;5098926;28;20214;-62
2022/07/27 10:31:53;;;;;;;1999.90;999.90;;;;;;;29.25;57.92;95213.13;5099416;28;20187;-68
2022/07/27 10:34:39;;;;;;;1999.90;999.90;;;;;;;29.87;55.17;95222.31;5099004;28;20172;-66
2022/07/27 10:37:16;;;;;;;1999.90;999.90;;;;;;;29.80;55.25;95222.91;5098838;28;20195;-61
2022/07/27 10:39:50;;;;;;;1999.90;999.90;;;;;;;29.91;52.73;95220.72;5099356;28;20228;-64
2022/07/27 10:42:29;;;;;;;1999.90;999.90;;;;;;;29.13;52.30;95217.34;5099154;28;20211;-62
2022/07/27 10:44:56;;;;;;;1999.90;999.90;;;;;;;29.83;54.95;95219.78;5098628;28;20184;-63
2022/07/27 10:47:38;;;;;;;1999.90;999.90;;;;;;;29.67;52.06;95220.78;5099182;28;20184;-76
2022/07/27 10:50:24;;;;;;;1999.90;999.90;;;;;;;28.63;56.12;95233.19;5099382;28;20267;-67
2022/07/27 10:53:07;;;;;;;1999.90;999.90;;;;;;;28.33;59.18;95224.00;5098631;28;20209;-65
2022/07/27 10:55:34;;;;;;;1999.90;999.90;;;;;;;29.24;55.10;95222.84;5099170;28;20180;-64